| time (UTC) | temp F | wind direction | speed knots | gust knots | rain 1hr in | rain 24hr in | rain mn in | humidity % | barometer mb |
| 20260906122307 | 71 | 36 | 0.9 | 0.9 | 0.00 | 0.00 | 0.00 | 99 | 1010.7 |
| 20260906121804 | 71 | 26 | 1.7 | 1.7 | 0.00 | 0.00 | 0.00 | 99 | 1010.7 |
| 20260906121259 | 71 | 37 | 0.0 | 0.0 | 0.00 | 0.00 | 0.00 | 99 | 1010.7 |
| 20260906120754 | 71 | 60 | 1.7 | 2.6 | 0.00 | 0.00 | 0.00 | 99 | 1010.4 |
| 20260906120246 | 71 | 21 | 1.7 | 2.6 | 0.00 | 0.00 | 0.00 | 99 | 1010.2 |
| 20260906115741 | 71 | 45 | 1.7 | 1.7 | 0.00 | 0.00 | 0.00 | 99 | 1010.2 |
| 20260906115236 | 71 | 48 | 0.9 | 0.9 | 0.00 | 0.00 | 0.00 | 99 | 1010.2 |
| 20260906114735 | 70 | 42 | 0.0 | 0.9 | 0.00 | 0.00 | 0.00 | 99 | 1010.2 |
| 20260906114231 | 70 | 80 | 2.6 | 2.6 | 0.00 | 0.00 | 0.00 | 99 | 1010.2 |
| 20260906113726 | 70 | 75 | 2.6 | 4.3 | 0.00 | 0.00 | 0.00 | 99 | 1010.2 |
| 20260906113224 | 70 | 17 | 0.9 | 0.9 | 0.00 | 0.00 | 0.00 | 99 | 1010.1 |
| 20260906112719 | 70 | 49 | 1.7 | 1.7 | 0.00 | 0.00 | 0.00 | 99 | 1010.0 |
| 20260906112216 | 70 | 72 | 0.9 | 0.9 | 0.00 | 0.00 | 0.00 | 99 | 1009.8 |
| 20260906111715 | 70 | 44 | 0.0 | 0.0 | 0.00 | 0.00 | 0.00 | 99 | 1009.7 |
| 20260906111210 | 70 | 15 | 1.7 | 2.6 | 0.00 | 0.00 | 0.00 | 99 | 1009.6 |
| 20260906110704 | 70 | 36 | 0.9 | 0.9 | 0.00 | 0.00 | 0.00 | 99 | 1009.3 |
| 20260906110200 | 70 | 13 | 1.7 | 1.7 | 0.00 | 0.00 | 0.00 | 99 | 1009.3 |
| 20260906105653 | 70 | 16 | 1.7 | 1.7 | 0.00 | 0.00 | 0.00 | 99 | 1009.3 |
| 20260906105150 | 70 | 15 | 2.6 | 2.6 | 0.00 | 0.00 | 0.00 | 99 | 1009.2 |
| 20260906104649 | 70 | 38 | 1.7 | 1.7 | 0.00 | 0.00 | 0.00 | 99 | 1009.3 |
| 20260906104143 | 70 | 74 | 1.7 | 1.7 | 0.00 | 0.00 | 0.00 | 99 | 1009.3 |
| 20260906103641 | 70 | 76 | 1.7 | 1.7 | 0.00 | 0.00 | 0.00 | 99 | 1009.1 |
| 20260906103137 | 70 | 80 | 3.5 | 4.3 | 0.00 | 0.00 | 0.00 | 99 | 1009.0 |
| 20260906102631 | 70 | 33 | 4.3 | 6.1 | 0.00 | 0.00 | 0.00 | 99 | 1009.1 |
| 20260906102125 | 70 | 96 | 1.7 | 2.6 | 0.00 | 0.00 | 0.00 | 99 | 1009.0 |
| 20260906101620 | 70 | 79 | 0.9 | 0.9 | 0.00 | 0.00 | 0.00 | 99 | 1008.9 |
| 20260906101115 | 70 | 99 | 2.6 | 2.6 | 0.00 | 0.00 | 0.00 | 99 | 1008.8 |
| 20260906100611 | 71 | 26 | 0.9 | 0.9 | 0.00 | 0.00 | 0.00 | 99 | 1008.7 |
| 20260906100111 | 71 | 76 | 4.3 | 5.2 | 0.00 | 0.00 | 0.00 | 99 | 1008.6 |
| 20260906095610 | 71 | 33 | 0.9 | 1.7 | 0.00 | 0.00 | 0.00 | 99 | 1008.8 |
| 20260906095106 | 71 | 14 | 3.5 | 6.1 | 0.00 | 0.00 | 0.00 | 99 | 1008.7 |
| 20260906094605 | 71 | 17 | 1.7 | 1.7 | 0.00 | 0.00 | 0.00 | 99 | 1008.7 |
| 20260906094101 | 71 | 55 | 2.6 | 2.6 | 0.00 | 0.00 | 0.00 | 99 | 1008.9 |
| 20260906093557 | 71 | 63 | 0.0 | 0.9 | 0.00 | 0.00 | 0.00 | 99 | 1008.6 |
| 20260906093051 | 71 | 76 | 1.7 | 1.7 | 0.00 | 0.00 | 0.00 | 99 | 1008.5 |
| 20260906092547 | 71 | 118 | 0.0 | 0.0 | 0.00 | 0.00 | 0.00 | 99 | 1008.6 |
| 20260906092042 | 71 | 71 | 0.9 | 0.9 | 0.00 | 0.00 | 0.00 | 99 | 1008.7 |
| 20260906091537 | 71 | 23 | 0.9 | 0.9 | 0.00 | 0.00 | 0.00 | 99 | 1008.7 |
| 20260906091033 | 71 | 14 | 0.0 | 0.9 | 0.00 | 0.00 | 0.00 | 99 | 1008.9 |
| 20260906090528 | 71 | 346 | 0.9 | 0.9 | 0.00 | 0.00 | 0.00 | 99 | 1008.9 |
| 20260906090023 | 71 | 9 | 1.7 | 1.7 | 0.00 | 0.00 | 0.00 | 99 | 1008.9 |
| 20260906085522 | 71 | 19 | 2.6 | 2.6 | 0.00 | 0.00 | 0.00 | 99 | 1008.9 |
| 20260906085021 | 71 | 17 | 0.9 | 1.7 | 0.00 | 0.00 | 0.00 | 99 | 1008.9 |
| 20260906084516 | 71 | 9 | 0.9 | 0.9 | 0.00 | 0.00 | 0.00 | 99 | 1008.8 |
| 20260906084015 | 71 | 10 | 1.7 | 1.7 | 0.00 | 0.00 | 0.00 | 99 | 1008.8 |
| 20260906083511 | 71 | 16 | 1.7 | 1.7 | 0.00 | 0.00 | 0.00 | 99 | 1008.7 |
| 20260906083010 | 71 | 48 | 0.0 | 0.9 | 0.00 | 0.00 | 0.00 | 99 | 1008.8 |
| 20260906082505 | 71 | 56 | 0.9 | 0.9 | 0.00 | 0.00 | 0.00 | 99 | 1008.9 |
| 20260906082001 | 71 | 118 | 1.7 | 1.7 | 0.00 | 0.00 | 0.00 | 99 | 1008.9 |
| 20260906081456 | 71 | 45 | 1.7 | 1.7 | 0.00 | 0.00 | 0.00 | 99 | 1008.9 |
| 20260906080952 | 71 | 299 | 0.0 | 0.0 | 0.00 | 0.00 | 0.00 | 99 | 1009.0 |
| 20260906080448 | 71 | 299 | 0.0 | 0.0 | 0.00 | 0.00 | 0.00 | 99 | 1008.9 |
| 20260906075943 | 71 | 299 | 0.0 | 0.0 | 0.00 | 0.00 | 0.00 | 99 | 1008.9 |
| 20260906075438 | 71 | 300 | 0.0 | 0.0 | 0.00 | 0.00 | 0.00 | 99 | 1008.9 |
| 20260906074933 | 71 | 300 | 0.0 | 0.0 | 0.00 | 0.00 | 0.00 | 99 | 1008.9 |
| 20260906074433 | 71 | 272 | 0.0 | 0.9 | 0.00 | 0.00 | 0.00 | 99 | 1008.9 |
| 20260906073932 | 71 | 250 | 0.9 | 0.9 | 0.00 | 0.00 | 0.00 | 99 | 1008.8 |
| 20260906073427 | 71 | 250 | 0.9 | 1.7 | 0.00 | 0.00 | 0.00 | 99 | 1008.6 |
| 20260906072923 | 71 | 268 | 0.0 | 0.9 | 0.00 | 0.00 | 0.00 | 99 | 1008.6 |
| 20260906072418 | 71 | 216 | 0.9 | 0.9 | 0.00 | 0.00 | 0.00 | 99 | 1008.4 |
| 20260906071914 | 71 | 349 | 0.0 | 0.0 | 0.00 | 0.00 | 0.00 | 99 | 1008.6 |
| 20260906071409 | 71 | 351 | 0.0 | 0.0 | 0.00 | 0.00 | 0.00 | 99 | 1008.2 |
| 20260906070905 | 71 | 351 | 0.0 | 0.0 | 0.00 | 0.00 | 0.00 | 99 | 1008.4 |
| 20260906070401 | 71 | 4 | 0.0 | 0.0 | 0.00 | 0.00 | 0.00 | 99 | 1008.4 |
| 20260906065857 | 71 | 46 | 0.0 | 0.0 | 0.00 | 0.00 | 0.00 | 99 | 1008.1 |
| 20260906065350 | 71 | 168 | 0.0 | 0.0 | 0.00 | 0.00 | 0.00 | 99 | 1008.3 |
| 20260906064846 | 71 | 170 | 0.0 | 0.0 | 0.00 | 0.00 | 0.00 | 99 | 1008.3 |
| 20260906064343 | 71 | 168 | 0.0 | 0.0 | 0.00 | 0.00 | 0.00 | 99 | 1008.5 |
| 20260906063837 | 71 | 166 | 0.0 | 0.0 | 0.00 | 0.00 | 0.00 | 99 | 1008.5 |
| 20260906063332 | 71 | 167 | 0.0 | 0.0 | 0.00 | 0.00 | 0.00 | 99 | 1008.4 |
| 20260906062827 | 71 | 168 | 0.9 | 0.9 | 0.00 | 0.00 | 0.00 | 99 | 1008.7 |
| 20260906062326 | 71 | 164 | 0.0 | 0.0 | 0.00 | 0.00 | 0.00 | 99 | 1008.8 |
| 20260906061822 | 72 | 165 | 0.9 | 0.9 | 0.00 | 0.00 | 0.00 | 99 | 1008.7 |
| 20260906061319 | 72 | 164 | 0.0 | 0.0 | 0.00 | 0.00 | 0.00 | 99 | 1008.7 |
| 20260906060813 | 71 | 160 | 0.0 | 0.0 | 0.00 | 0.00 | 0.00 | 99 | 1008.9 |
| 20260906060311 | 72 | 160 | 0.0 | 0.0 | 0.00 | 0.00 | 0.00 | 99 | 1009.0 |
| 20260906055807 | 72 | 154 | 0.0 | 0.0 | 0.00 | 0.00 | 0.00 | 99 | 1009.0 |
| 20260906055306 | 72 | 110 | 0.9 | 1.7 | 0.00 | 0.00 | 0.00 | 99 | 1008.7 |
| 20260906054757 | 72 | 107 | 0.9 | 0.9 | 0.00 | 0.00 | 0.00 | 99 | 1008.6 |
| 20260906054252 | 72 | 80 | 0.9 | 0.9 | 0.00 | 0.00 | 0.00 | 99 | 1009.0 |
| 20260906053749 | 72 | 55 | 0.9 | 0.9 | 0.00 | 0.00 | 0.00 | 99 | 1008.6 |
| 20260906053244 | 72 | 137 | 0.0 | 0.0 | 0.00 | 0.00 | 0.00 | 99 | 1008.9 |
| 20260906052739 | 72 | 137 | 0.0 | 0.0 | 0.00 | 0.00 | 0.00 | 99 | 1008.7 |
| 20260906052235 | 72 | 149 | 0.0 | 0.9 | 0.00 | 0.00 | 0.00 | 99 | 1008.5 |
| 20260906051732 | 72 | 155 | 0.0 | 0.0 | 0.00 | 0.00 | 0.00 | 99 | 1008.8 |
| 20260906051231 | 72 | 156 | 0.0 | 0.0 | 0.00 | 0.00 | 0.00 | 99 | 1008.8 |
| 20260906050727 | 73 | 157 | 0.0 | 0.9 | 0.00 | 0.00 | 0.00 | 99 | 1008.9 |
| 20260906050222 | 73 | 157 | 0.0 | 0.9 | 0.00 | 0.00 | 0.00 | 99 | 1008.8 |
| 20260906045721 | 73 | 157 | 0.0 | 0.0 | 0.00 | 0.00 | 0.00 | 99 | 1008.8 |
| 20260906045216 | 73 | 157 | 0.9 | 0.9 | 0.00 | 0.00 | 0.00 | 99 | 1008.5 |
| 20260906044711 | 73 | 156 | 0.0 | 0.0 | 0.00 | 0.00 | 0.00 | 99 | 1008.6 |
| 20260906044206 | 73 | 60 | 0.0 | 0.9 | 0.00 | 0.00 | 0.00 | 99 | 1008.3 |
| 20260906043703 | 73 | 25 | 1.7 | 1.7 | 0.00 | 0.00 | 0.00 | 99 | 1008.4 |
| 20260906043158 | 73 | 56 | 0.9 | 0.9 | 0.00 | 0.00 | 0.00 | 99 | 1008.3 |
| 20260906042658 | 73 | 143 | 0.0 | 0.9 | 0.00 | 0.00 | 0.00 | 99 | 1008.2 |
| 20260906042157 | 73 | 143 | 0.0 | 0.0 | 0.00 | 0.00 | 0.00 | 99 | 1008.2 |
| 20260906041653 | 73 | 144 | 0.9 | 0.9 | 0.00 | 0.00 | 0.00 | 99 | 1008.4 |
| 20260906041148 | 74 | 142 | 0.9 | 1.7 | 0.00 | 0.00 | 0.00 | 99 | 1008.5 |
| 20260906040643 | 73 | 187 | 0.0 | 0.0 | 0.00 | 0.00 | 0.00 | 99 | 1008.4 |
| 20260906040139 | 74 | 179 | 0.9 | 0.9 | 0.00 | 0.00 | 0.00 | 99 | 1008.7 |
| 20260906035633 | 74 | 100 | 0.0 | 0.9 | 0.00 | 0.08 | 0.08 | 99 | 1008.4 |
| 20260906035129 | 74 | 98 | 0.0 | 0.0 | 0.00 | 0.08 | 0.08 | 99 | 1008.6 |
| 20260906034624 | 74 | 98 | 0.0 | 0.0 | 0.00 | 0.08 | 0.08 | 99 | 1008.3 |
| 20260906034118 | 74 | 98 | 0.0 | 0.0 | 0.00 | 0.08 | 0.08 | 99 | 1008.4 |
| 20260906033614 | 74 | 110 | 0.9 | 0.9 | 0.00 | 0.08 | 0.08 | 99 | 1008.4 |
| 20260906033108 | 74 | 77 | 0.9 | 0.9 | 0.00 | 0.08 | 0.08 | 99 | 1008.6 |
| 20260906032606 | 74 | 52 | 0.0 | 0.0 | 0.00 | 0.08 | 0.08 | 99 | 1008.6 |
| 20260906032100 | 74 | 53 | 0.0 | 0.9 | 0.00 | 0.08 | 0.08 | 99 | 1008.8 |
| 20260906031555 | 74 | 76 | 0.9 | 0.9 | 0.00 | 0.08 | 0.08 | 99 | 1008.7 |
| 20260906031051 | 74 | 127 | 0.9 | 0.9 | 0.00 | 0.08 | 0.08 | 99 | 1008.7 |
| 20260906030550 | 74 | 52 | 0.0 | 0.9 | 0.00 | 0.08 | 0.08 | 99 | 1009.0 |
| 20260906030050 | 74 | 74 | 0.9 | 1.7 | 0.00 | 0.08 | 0.08 | 99 | 1008.9 |
| 20260906025550 | 74 | 99 | 1.7 | 1.7 | 0.00 | 0.08 | 0.08 | 99 | 1008.9 |
| 20260906025048 | 74 | 85 | 2.6 | 2.6 | 0.00 | 0.08 | 0.08 | 99 | 1009.0 |
| 20260906024544 | 74 | 102 | 0.9 | 0.9 | 0.00 | 0.08 | 0.08 | 99 | 1009.3 |
| 20260906024043 | 74 | 94 | 1.7 | 1.7 | 0.00 | 0.08 | 0.08 | 99 | 1009.1 |
| 20260906023540 | 74 | 97 | 0.9 | 0.9 | 0.00 | 0.08 | 0.08 | 99 | 1009.3 |
| 20260906023034 | 74 | 97 | 0.0 | 0.0 | 0.00 | 0.08 | 0.08 | 99 | 1009.0 |
| 20260906022530 | 74 | 110 | 0.9 | 1.7 | 0.00 | 0.08 | 0.08 | 99 | 1008.9 |
| 20260906022025 | 74 | 54 | 0.0 | 0.0 | 0.00 | 0.08 | 0.08 | 99 | 1008.9 |
| 20260906021520 | 74 | 64 | 0.9 | 0.9 | 0.00 | 0.08 | 0.08 | 99 | 1008.9 |
| 20260906021014 | 74 | 211 | 0.0 | 0.0 | 0.00 | 0.08 | 0.08 | 99 | 1008.8 |
| 20260906020514 | 74 | 212 | 0.0 | 0.0 | 0.00 | 0.08 | 0.08 | 99 | 1008.8 |
| 20260906020013 | 74 | 212 | 0.0 | 0.0 | 0.00 | 0.08 | 0.08 | 99 | 1008.6 |
| 20260906015512 | 74 | 211 | 0.0 | 0.0 | 0.00 | 0.08 | 0.08 | 99 | 1008.7 |
| 20260906015007 | 74 | 212 | 0.0 | 0.0 | 0.00 | 0.08 | 0.08 | 99 | 1008.4 |
| 20260906014502 | 75 | 211 | 0.0 | 0.0 | 0.00 | 0.08 | 0.08 | 99 | 1008.5 |
| 20260906013957 | 75 | 211 | 0.9 | 0.9 | 0.00 | 0.08 | 0.08 | 99 | 1008.7 |
| 20260906013453 | 75 | 217 | 0.0 | 0.9 | 0.00 | 0.08 | 0.08 | 99 | 1008.7 |
| 20260906012948 | 75 | 217 | 0.0 | 0.9 | 0.00 | 0.08 | 0.08 | 99 | 1008.4 |
| 20260906012443 | 75 | 215 | 0.0 | 0.0 | 0.00 | 0.08 | 0.08 | 98 | 1008.4 |
| 20260906011942 | 75 | 215 | 0.0 | 0.0 | 0.00 | 0.08 | 0.08 | 98 | 1008.1 |
| 20260906011438 | 75 | 215 | 0.0 | 0.0 | 0.00 | 0.08 | 0.08 | 98 | 1008.2 |
| 20260906010933 | 75 | 216 | 0.0 | 0.0 | 0.00 | 0.08 | 0.08 | 98 | 1008.0 |
| 20260906010428 | 76 | 205 | 0.9 | 0.9 | 0.00 | 0.08 | 0.08 | 97 | 1007.9 |
| 20260906005924 | 76 | 183 | 0.0 | 0.0 | 0.00 | 0.08 | 0.08 | 97 | 1008.2 |
| 20260906005424 | 76 | 182 | 0.0 | 0.0 | 0.00 | 0.08 | 0.08 | 97 | 1008.0 |
| 20260906004922 | 76 | 183 | 0.0 | 0.0 | 0.00 | 0.08 | 0.08 | 97 | 1008.0 |
| 20260906004417 | 76 | 182 | 0.0 | 0.0 | 0.00 | 0.08 | 0.08 | 96 | 1007.8 |
| 20260906003913 | 76 | 182 | 0.0 | 0.0 | 0.00 | 0.08 | 0.08 | 95 | 1007.9 |
| 20260906003408 | 77 | 182 | 0.0 | 0.0 | 0.00 | 0.08 | 0.08 | 95 | 1008.0 |
| 20260906002903 | 77 | 213 | 0.0 | 0.0 | 0.00 | 0.08 | 0.08 | 95 | 1008.0 |
| 20260906002403 | 77 | 194 | 0.9 | 0.9 | 0.00 | 0.08 | 0.08 | 94 | 1008.0 |
| 20260906001858 | 77 | 161 | 0.0 | 0.0 | 0.00 | 0.08 | 0.08 | 93 | 1008.0 |
| 20260906001353 | 78 | 161 | 0.0 | 0.0 | 0.00 | 0.08 | 0.08 | 93 | 1008.1 |
| 20260906000848 | 78 | 161 | 0.0 | 0.0 | 0.00 | 0.08 | 0.08 | 92 | 1008.2 |
| 20260906000348 | 78 | 119 | 0.9 | 1.7 | 0.00 | 0.08 | 0.08 | 91 | 1007.9 |
| 20260905235843 | 78 | 181 | 0.9 | 0.9 | 0.00 | 0.08 | 0.08 | 90 | 1008.3 |
| 20260905235337 | 79 | 181 | 0.9 | 0.9 | 0.00 | 0.08 | 0.08 | 89 | 1008.2 |
| 20260905234833 | 79 | 183 | 0.0 | 0.0 | 0.00 | 0.08 | 0.08 | 87 | 1008.4 |
| 20260905234328 | 80 | 183 | 0.0 | 0.0 | 0.00 | 0.08 | 0.08 | 86 | 1008.2 |
| 20260905233823 | 80 | 212 | 0.9 | 0.9 | 0.00 | 0.08 | 0.08 | 86 | 1008.3 |
| 20260905233318 | 82 | 222 | 1.7 | 1.7 | 0.00 | 0.08 | 0.08 | 83 | 1008.3 |
| 20260905232817 | 82 | 356 | 0.0 | 0.0 | 0.00 | 0.08 | 0.08 | 79 | 1008.1 |
| 20260905232313 | 83 | 356 | 0.0 | 0.0 | 0.00 | 0.08 | 0.08 | 78 | 1008.3 |
| 20260905231809 | 83 | 352 | 0.9 | 0.9 | 0.00 | 0.08 | 0.08 | 77 | 1008.1 |
| 20260905231304 | 83 | 24 | 0.0 | 0.0 | 0.00 | 0.08 | 0.08 | 77 | 1008.1 |
| 20260905230800 | 83 | 32 | 0.9 | 0.9 | 0.00 | 0.08 | 0.08 | 76 | 1008.3 |
| 20260905230258 | 83 | 25 | 0.0 | 0.9 | 0.00 | 0.08 | 0.08 | 77 | 1008.2 |
| 20260905225757 | 83 | 11 | 0.9 | 0.9 | 0.00 | 0.08 | 0.08 | 76 | 1008.6 |
| 20260905225253 | 83 | 22 | 0.9 | 1.7 | 0.00 | 0.08 | 0.08 | 76 | 1008.4 |
| 20260905224752 | 83 | 28 | 0.0 | 0.9 | 0.00 | 0.08 | 0.08 | 77 | 1008.5 |
| 20260905224248 | 83 | 25 | 0.0 | 0.0 | 0.00 | 0.08 | 0.08 | 77 | 1008.3 |
| 20260905223743 | 83 | 20 | 0.9 | 0.9 | 0.00 | 0.08 | 0.08 | 76 | 1008.3 |
| 20260905223240 | 83 | 19 | 2.6 | 2.6 | 0.00 | 0.08 | 0.08 | 77 | 1008.2 |
| 20260905222736 | 83 | 33 | 0.9 | 0.9 | 0.00 | 0.08 | 0.08 | 77 | 1008.3 |
| 20260905222234 | 83 | 10 | 2.6 | 4.3 | 0.00 | 0.08 | 0.08 | 78 | 1008.0 |
| 20260905221731 | 83 | 19 | 0.9 | 1.7 | 0.00 | 0.08 | 0.08 | 78 | 1008.3 |
| 20260905221227 | 83 | 37 | 0.9 | 0.9 | 0.00 | 0.08 | 0.08 | 78 | 1008.1 |
| 20260905220723 | 83 | 344 | 0.0 | 0.9 | 0.00 | 0.08 | 0.08 | 77 | 1008.3 |
| 20260905220219 | 83 | 334 | 2.6 | 2.6 | 0.00 | 0.08 | 0.08 | 77 | 1008.2 |
| 20260905215718 | 84 | 345 | 2.6 | 4.3 | 0.00 | 0.08 | 0.08 | 77 | 1008.1 |
| 20260905215214 | 84 | 356 | 1.7 | 2.6 | 0.00 | 0.08 | 0.08 | 75 | 1008.2 |
| 20260905214710 | 85 | 12 | 2.6 | 2.6 | 0.00 | 0.08 | 0.08 | 74 | 1008.1 |
| 20260905214205 | 85 | 7 | 0.9 | 0.9 | 0.00 | 0.08 | 0.08 | 75 | 1008.1 |
| 20260905213700 | 85 | 13 | 0.9 | 1.7 | 0.00 | 0.08 | 0.08 | 73 | 1008.1 |
| 20260905213156 | 86 | 29 | 1.7 | 1.7 | 0.00 | 0.08 | 0.08 | 72 | 1007.9 |
| 20260905212651 | 85 | 298 | 0.9 | 1.7 | 0.00 | 0.08 | 0.08 | 72 | 1007.9 |
| 20260905212150 | 85 | 13 | 2.6 | 2.6 | 0.00 | 0.08 | 0.08 | 73 | 1007.9 |
| 20260905211645 | 85 | 29 | 1.7 | 2.6 | 0.00 | 0.08 | 0.08 | 72 | 1007.8 |
| 20260905211140 | 86 | 336 | 4.3 | 5.2 | 0.00 | 0.08 | 0.08 | 72 | 1008.0 |
| 20260905210637 | 86 | 311 | 1.7 | 2.6 | 0.00 | 0.08 | 0.08 | 72 | 1007.8 |
| 20260905210137 | 86 | 334 | 2.6 | 2.6 | 0.00 | 0.08 | 0.08 | 72 | 1007.8 |
| 20260905205636 | 86 | 303 | 0.9 | 1.7 | 0.00 | 0.08 | 0.08 | 72 | 1007.8 |
| 20260905205130 | 85 | 27 | 3.5 | 5.2 | 0.00 | 0.08 | 0.08 | 72 | 1007.7 |
| 20260905204630 | 85 | 289 | 1.7 | 1.7 | 0.00 | 0.08 | 0.08 | 73 | 1007.8 |
| 20260905204125 | 86 | 357 | 0.9 | 1.7 | 0.00 | 0.08 | 0.08 | 74 | 1008.0 |
| 20260905203625 | 87 | 42 | 0.9 | 1.7 | 0.00 | 0.08 | 0.08 | 72 | 1007.7 |
| 20260905203120 | 86 | 35 | 1.7 | 1.7 | 0.00 | 0.08 | 0.08 | 71 | 1008.0 |
| 20260905202616 | 85 | 18 | 0.9 | 1.7 | 0.00 | 0.08 | 0.08 | 71 | 1007.6 |
| 20260905202111 | 85 | 359 | 0.9 | 1.7 | 0.00 | 0.08 | 0.08 | 73 | 1007.9 |
| 20260905201607 | 86 | 296 | 3.5 | 4.3 | 0.00 | 0.08 | 0.08 | 70 | 1008.1 |
| 20260905201106 | 84 | 311 | 1.7 | 2.6 | 0.00 | 0.08 | 0.08 | 72 | 1008.4 |
| 20260905200602 | 84 | 3 | 2.6 | 2.6 | 0.00 | 0.08 | 0.08 | 71 | 1008.4 |
| 20260905200056 | 85 | 351 | 3.5 | 4.3 | 0.00 | 0.08 | 0.08 | 68 | 1008.6 |
| 20260905195550 | 87 | 8 | 1.7 | 1.7 | 0.00 | 0.08 | 0.08 | 64 | 1008.5 |
| 20260905195046 | 85 | 262 | 3.5 | 4.3 | 0.00 | 0.08 | 0.08 | 65 | 1008.4 |
| 20260905194545 | 85 | 313 | 2.6 | 4.3 | 0.00 | 0.08 | 0.08 | 69 | 1008.7 |
| 20260905194044 | 85 | 309 | 2.6 | 2.6 | 0.00 | 0.08 | 0.08 | 70 | 1008.5 |
| 20260905193540 | 85 | 290 | 1.7 | 1.7 | 0.00 | 0.08 | 0.08 | 71 | 1008.5 |
| 20260905193035 | 84 | 323 | 2.6 | 2.6 | 0.00 | 0.08 | 0.08 | 71 | 1008.6 |
| 20260905192530 | 84 | 335 | 0.9 | 1.7 | 0.00 | 0.08 | 0.08 | 72 | 1008.6 |
| 20260905192027 | 84 | 294 | 2.6 | 2.6 | 0.00 | 0.08 | 0.08 | 72 | 1008.8 |
| 20260905191524 | 85 | 339 | 2.6 | 4.3 | 0.00 | 0.08 | 0.08 | 70 | 1008.8 |
| 20260905191023 | 85 | 307 | 0.9 | 0.9 | 0.00 | 0.08 | 0.08 | 71 | 1008.8 |
| 20260905190521 | 86 | 336 | 0.9 | 0.9 | 0.00 | 0.08 | 0.08 | 72 | 1008.7 |
| 20260905190016 | 85 | 307 | 0.9 | 0.9 | 0.00 | 0.08 | 0.08 | 71 | 1009.0 |
| 20260905185516 | 85 | 350 | 0.9 | 0.9 | 0.00 | 0.08 | 0.08 | 72 | 1009.1 |
| 20260905185015 | 85 | 10 | 0.9 | 0.9 | 0.00 | 0.08 | 0.08 | 72 | 1009.2 |
| 20260905184510 | 85 | 5 | 0.0 | 0.9 | 0.00 | 0.08 | 0.08 | 71 | 1009.2 |
| 20260905184009 | 85 | 20 | 1.7 | 1.7 | 0.00 | 0.08 | 0.08 | 73 | 1009.3 |
| 20260905183508 | 84 | 50 | 0.9 | 0.9 | 0.00 | 0.08 | 0.08 | 73 | 1009.3 |
| 20260905183009 | 83 | 15 | 1.7 | 1.7 | 0.00 | 0.08 | 0.08 | 76 | 1009.3 |
| 20260905182503 | 83 | 48 | 2.6 | 2.6 | 0.00 | 0.08 | 0.08 | 75 | 1009.6 |
| 20260905181957 | 82 | 12 | 0.0 | 0.0 | 0.00 | 0.08 | 0.08 | 76 | 1009.7 |
| 20260905181453 | 83 | 142 | 1.7 | 4.3 | 0.00 | 0.08 | 0.08 | 79 | 1009.6 |
| 20260905180951 | 83 | 16 | 2.6 | 2.6 | 0.00 | 0.08 | 0.08 | 75 | 1009.6 |
| 20260905180446 | 82 | 303 | 0.9 | 1.7 | 0.00 | 0.08 | 0.08 | 76 | 1009.4 |
| 20260905175942 | 83 | 9 | 3.5 | 4.3 | 0.00 | 0.08 | 0.08 | 74 | 1009.5 |
| 20260905175441 | 82 | 224 | 1.7 | 1.7 | 0.00 | 0.08 | 0.08 | 75 | 1009.7 |
| 20260905174937 | 82 | 71 | 0.9 | 1.7 | 0.00 | 0.08 | 0.08 | 79 | 1009.7 |
| 20260905174432 | 81 | 77 | 2.6 | 2.6 | 0.00 | 0.08 | 0.08 | 77 | 1009.8 |
| 20260905173927 | 82 | 7 | 2.6 | 2.6 | 0.00 | 0.08 | 0.08 | 76 | 1010.0 |
| 20260905173424 | 81 | 45 | 0.9 | 1.7 | 0.00 | 0.08 | 0.08 | 79 | 1010.0 |
| 20260905172919 | 81 | 13 | 2.6 | 2.6 | 0.00 | 0.08 | 0.08 | 80 | 1009.8 |
| 20260905172417 | 80 | 85 | 1.7 | 1.7 | 0.00 | 0.08 | 0.08 | 79 | 1010.0 |
| 20260905171913 | 81 | 76 | 0.9 | 2.6 | 0.00 | 0.08 | 0.08 | 82 | 1010.2 |
| 20260905171410 | 81 | 22 | 1.7 | 1.7 | 0.00 | 0.08 | 0.08 | 80 | 1010.1 |
| 20260905170905 | 81 | 159 | 0.9 | 1.7 | 0.00 | 0.08 | 0.08 | 78 | 1010.3 |
| 20260905170402 | 80 | 50 | 3.5 | 4.3 | 0.00 | 0.08 | 0.08 | 83 | 1010.4 |
| 20260905165901 | 81 | 7 | 4.3 | 5.2 | 0.00 | 0.08 | 0.08 | 80 | 1010.2 |
| 20260905165356 | 80 | 39 | 2.6 | 4.3 | 0.00 | 0.08 | 0.08 | 83 | 1010.2 |
| 20260905164850 | 80 | 40 | 1.7 | 2.6 | 0.00 | 0.08 | 0.08 | 80 | 1010.6 |
| 20260905164345 | 80 | 35 | 1.7 | 1.7 | 0.00 | 0.08 | 0.08 | 82 | 1010.5 |
| 20260905163840 | 79 | 62 | 0.0 | 0.9 | 0.00 | 0.08 | 0.08 | 85 | 1010.2 |
| 20260905163337 | 78 | 125 | 3.5 | 4.3 | 0.00 | 0.08 | 0.08 | 85 | 1010.5 |
| 20260905162832 | 78 | 138 | 1.7 | 1.7 | 0.00 | 0.08 | 0.08 | 85 | 1010.5 |
| 20260905162327 | 78 | 93 | 1.7 | 2.6 | 0.00 | 0.08 | 0.08 | 86 | 1010.5 |
| 20260905161821 | 78 | 127 | 3.5 | 4.3 | 0.00 | 0.08 | 0.08 | 87 | 1010.5 |
| 20260905161321 | 77 | 129 | 2.6 | 2.6 | 0.00 | 0.08 | 0.08 | 87 | 1010.9 |
| 20260905160819 | 78 | 108 | 2.6 | 2.6 | 0.00 | 0.08 | 0.08 | 89 | 1010.5 |
| 20260905160314 | 77 | 117 | 2.6 | 2.6 | 0.00 | 0.08 | 0.08 | 89 | 1010.4 |
| 20260905155808 | 77 | 55 | 0.0 | 0.0 | 0.00 | 0.08 | 0.08 | 89 | 1010.5 |
| 20260905155307 | 77 | 116 | 2.6 | 4.3 | 0.00 | 0.08 | 0.08 | 90 | 1010.0 |
| 20260905154801 | 77 | 22 | 0.9 | 0.9 | 0.00 | 0.08 | 0.08 | 91 | 1009.8 |
| 20260905154257 | 77 | 267 | 3.5 | 4.3 | 0.00 | 0.08 | 0.08 | 91 | 1009.6 |
| 20260905153752 | 77 | 197 | 1.7 | 1.7 | 0.00 | 0.08 | 0.08 | 92 | 1009.6 |
| 20260905153248 | 76 | 243 | 2.6 | 4.3 | 0.00 | 0.08 | 0.08 | 94 | 1009.8 |
| 20260905152742 | 75 | 269 | 1.7 | 2.6 | 0.00 | 0.08 | 0.08 | 95 | 1010.6 |
| 20260905152237 | 75 | 12 | 3.5 | 4.3 | 0.00 | 0.08 | 0.08 | 95 | 1010.4 |
| 20260905151736 | 75 | 164 | 2.6 | 4.3 | 0.00 | 0.08 | 0.08 | 95 | 1009.3 |
| 20260905151233 | 75 | 252 | 2.6 | 2.6 | 0.00 | 0.08 | 0.08 | 95 | 1010.6 |
| 20260905150732 | 75 | 218 | 1.7 | 1.7 | 0.00 | 0.08 | 0.08 | 95 | 1010.9 |
| 20260905150232 | 75 | 251 | 0.9 | 0.9 | 0.00 | 0.08 | 0.08 | 95 | 1010.7 |
| 20260905145729 | 75 | 254 | 2.6 | 2.6 | 0.00 | 0.08 | 0.08 | 95 | 1010.7 |
| 20260905145224 | 75 | 262 | 3.5 | 4.3 | 0.00 | 0.08 | 0.08 | 94 | 1010.3 |
| 20260905144723 | 75 | 254 | 1.7 | 1.7 | 0.00 | 0.08 | 0.08 | 94 | 1010.1 |
| 20260905144218 | 75 | 210 | 0.9 | 0.9 | 0.00 | 0.08 | 0.08 | 94 | 1009.7 |
| 20260905143717 | 75 | 247 | 0.9 | 0.9 | 0.00 | 0.08 | 0.08 | 95 | 1010.1 |
| 20260905143212 | 75 | 234 | 1.7 | 1.7 | 0.00 | 0.08 | 0.08 | 95 | 1010.3 |
| 20260905142710 | 74 | 272 | 0.0 | 0.0 | 0.00 | 0.08 | 0.08 | 95 | 1010.8 |
| 20260905142205 | 74 | 268 | 0.9 | 1.7 | 0.00 | 0.08 | 0.08 | 96 | 1010.7 |
| 20260905141700 | 74 | 163 | 1.7 | 1.7 | 0.00 | 0.08 | 0.08 | 96 | 1010.3 |
| 20260905141156 | 74 | 78 | 0.0 | 0.9 | 0.00 | 0.08 | 0.08 | 96 | 1010.6 |
| 20260905140651 | 74 | 239 | 0.9 | 0.9 | 0.00 | 0.08 | 0.08 | 96 | 1010.7 |
| 20260905140145 | 74 | 324 | 0.0 | 0.9 | 0.00 | 0.08 | 0.08 | 96 | 1011.1 |
| 20260905135640 | 74 | 156 | 2.6 | 2.6 | 0.00 | 0.08 | 0.08 | 95 | 1011.2 |
| 20260905135136 | 74 | 167 | 1.7 | 2.6 | 0.00 | 0.08 | 0.08 | 95 | 1011.3 |
| 20260905134630 | 75 | 146 | 0.9 | 0.9 | 0.00 | 0.08 | 0.08 | 96 | 1011.2 |
| 20260905134129 | 73 | 151 | 2.6 | 2.6 | 0.00 | 0.08 | 0.08 | 97 | 1011.5 |
| 20260905133625 | 74 | 17 | 0.9 | 1.7 | 0.00 | 0.08 | 0.08 | 98 | 1011.7 |
| 20260905133125 | 74 | 116 | 1.7 | 1.7 | 0.00 | 0.08 | 0.08 | 99 | 1011.3 |
| 20260905132624 | 73 | 46 | 0.0 | 0.9 | 0.00 | 0.08 | 0.08 | 99 | 1011.7 |
| 20260905132118 | 73 | 359 | 0.0 | 0.9 | 0.00 | 0.08 | 0.08 | 99 | 1011.7 |
| 20260905131609 | 73 | 327 | 0.0 | 0.0 | 0.00 | 0.08 | 0.08 | 99 | 1011.6 |
| 20260905131104 | 73 | 318 | 0.0 | 0.9 | 0.00 | 0.08 | 0.08 | 98 | 1011.5 |
| 20260905130604 | 73 | 8 | 0.0 | 0.0 | 0.47 | 0.08 | 0.08 | 98 | 1011.5 |
| 20260905130058 | 73 | 48 | 0.9 | 0.9 | 0.47 | 0.08 | 0.08 | 97 | 1011.7 |
| 20260905125558 | 74 | 340 | 4.3 | 6.1 | 0.00 | 0.00 | 0.00 | 96 | 1012.1 |
| 20260905125053 | 74 | 5 | 4.3 | 5.2 | 0.00 | 0.00 | 0.00 | 96 | 1011.7 |
| 20260905124550 | 74 | 339 | 0.9 | 1.7 | 0.00 | 0.00 | 0.00 | 96 | 1011.4 |
| 20260905124045 | 74 | 24 | 2.6 | 4.3 | 0.00 | 0.00 | 0.00 | 96 | 1011.3 |
| 20260905123540 | 74 | 23 | 1.7 | 1.7 | 0.00 | 0.00 | 0.00 | 97 | 1011.3 |
| 20260905123038 | 74 | 13 | 2.6 | 2.6 | 0.00 | 0.00 | 0.00 | 99 | 1011.4 |